createdAt,value
2022-09-30T00:00:47.525Z,9.57
2022-09-30T00:05:56.191Z,9.58
2022-09-30T00:11:01.656Z,9.62
2022-09-30T00:16:03.743Z,9.62
2022-09-30T00:21:08.182Z,9.59
2022-09-30T00:26:18.339Z,9.56
2022-09-30T00:31:21.495Z,9.52
2022-09-30T00:36:22.988Z,9.50
2022-09-30T00:41:24.991Z,9.42
2022-09-30T00:46:39.788Z,9.36
2022-09-30T00:51:54.497Z,9.37
2022-09-30T00:56:59.088Z,9.41
2022-09-30T01:02:01.384Z,9.43
2022-09-30T01:07:05.861Z,9.42
2022-09-30T01:12:10.911Z,9.41
2022-09-30T01:17:41.148Z,9.39
2022-09-30T01:22:45.210Z,9.33
2022-09-30T01:28:04.844Z,9.27
2022-09-30T01:33:19.492Z,9.22
2022-09-30T01:38:49.654Z,9.15
2022-09-30T01:44:08.522Z,9.18
2022-09-30T01:49:38.517Z,9.16
2022-09-30T01:54:48.251Z,9.14
2022-09-30T02:00:04.103Z,9.09
2022-09-30T02:05:11.610Z,9.04
2022-09-30T02:10:20.816Z,8.98
2022-09-30T02:15:28.284Z,8.95
2022-09-30T02:20:33.170Z,8.87
2022-09-30T02:25:42.292Z,8.84
2022-09-30T02:30:49.985Z,8.81
2022-09-30T02:35:59.027Z,8.74
2022-09-30T02:41:06.558Z,8.65
2022-09-30T02:46:10.957Z,8.56
2022-09-30T02:51:26.461Z,8.46
2022-09-30T02:56:45.940Z,8.45
2022-09-30T03:01:47.547Z,8.43
2022-09-30T03:06:49.362Z,8.45
2022-09-30T03:11:54.210Z,8.43
2022-09-30T03:17:08.500Z,8.44
2022-09-30T03:22:40.608Z,8.41
2022-09-30T03:27:54.670Z,8.34
2022-09-30T03:33:25.085Z,8.36
2022-09-30T03:38:49.414Z,8.32
2022-09-30T03:44:22.140Z,8.24
2022-09-30T03:49:28.309Z,8.23
2022-09-30T03:54:29.878Z,8.22
2022-09-30T03:59:31.224Z,8.16
2022-09-30T04:04:32.610Z,7.95
2022-09-30T04:09:34.663Z,7.89
2022-09-30T04:14:36.423Z,7.91
2022-09-30T04:19:40.165Z,7.90
2022-09-30T04:24:41.843Z,7.90
2022-09-30T04:29:43.206Z,7.86
2022-09-30T04:34:44.551Z,7.83
2022-09-30T04:39:45.876Z,7.80
2022-09-30T04:44:48.086Z,7.79
2022-09-30T04:49:49.416Z,7.74
2022-09-30T04:54:50.760Z,7.69
2022-09-30T04:59:52.256Z,7.67
2022-09-30T05:04:55.159Z,7.65
2022-09-30T05:09:56.514Z,7.61
2022-09-30T05:14:57.840Z,7.58
2022-09-30T05:19:59.625Z,7.54
2022-09-30T05:25:03.832Z,7.57
2022-09-30T05:30:06.687Z,7.59
2022-09-30T05:35:09.261Z,7.58
2022-09-30T05:40:10.749Z,7.52
2022-09-30T05:45:12.124Z,7.47
2022-09-30T05:50:13.485Z,7.49
2022-09-30T05:55:16.461Z,7.55
2022-09-30T06:00:18.854Z,7.58
2022-09-30T06:05:22.013Z,7.58
2022-09-30T06:10:24.081Z,7.66
2022-09-30T06:15:26.873Z,7.71
2022-09-30T06:20:28.216Z,7.75
2022-09-30T06:25:30.049Z,7.76
2022-09-30T06:30:35.071Z,7.84
2022-09-30T06:35:36.909Z,7.92
2022-09-30T06:40:38.499Z,8.05
2022-09-30T06:45:39.915Z,8.16
2022-09-30T06:50:43.500Z,8.25
2022-09-30T06:55:54.557Z,8.41
2022-09-30T07:01:02.150Z,8.52
2022-09-30T07:06:05.265Z,8.65
2022-09-30T07:11:12.518Z,8.82
2022-09-30T07:16:14.580Z,8.95
2022-09-30T07:21:16.415Z,9.08
2022-09-30T07:26:22.729Z,9.21
2022-09-30T07:31:35.261Z,9.41
2022-09-30T07:36:39.234Z,9.63
2022-09-30T07:41:40.836Z,9.80
2022-09-30T07:46:43.873Z,9.89
2022-09-30T07:51:45.611Z,10.01
2022-09-30T08:02:14.319Z,10.28
2022-09-30T08:07:17.633Z,10.27
2022-09-30T08:12:18.983Z,10.40
2022-09-30T08:17:20.327Z,10.46
2022-09-30T08:22:23.754Z,10.47
2022-09-30T08:27:25.151Z,10.64
2022-09-30T08:32:30.531Z,10.81
2022-09-30T08:37:31.987Z,10.95
2022-09-30T08:42:41.607Z,10.96
2022-09-30T08:47:56.241Z,11.17
2022-09-30T08:53:02.152Z,11.38
2022-09-30T08:58:05.030Z,11.58
2022-09-30T09:03:06.636Z,11.82
2022-09-30T09:08:28.559Z,12.02
2022-09-30T09:13:51.125Z,12.33
2022-09-30T09:19:08.227Z,12.20
2022-09-30T09:24:18.125Z,12.50
2022-09-30T09:29:43.817Z,12.51
2022-09-30T09:34:51.677Z,12.80
2022-09-30T09:40:04.538Z,13.05
2022-09-30T09:45:14.881Z,13.33
2022-09-30T09:50:27.662Z,13.63
2022-09-30T09:55:29.072Z,13.86
2022-09-30T10:00:48.611Z,14.12
2022-09-30T10:06:12.739Z,14.28
2022-09-30T10:11:22.856Z,14.59
2022-09-30T10:16:37.399Z,14.87
2022-09-30T10:21:38.748Z,15.20
2022-09-30T10:26:48.457Z,15.50
2022-09-30T10:31:54.033Z,15.74
2022-09-30T10:37:01.452Z,15.91
2022-09-30T10:42:17.139Z,16.00
2022-09-30T10:47:26.159Z,16.03
2022-09-30T10:52:32.292Z,16.20
2022-09-30T10:57:36.308Z,16.36
2022-09-30T11:02:41.782Z,16.57
2022-09-30T11:07:53.378Z,16.63
2022-09-30T11:13:19.385Z,16.95
2022-09-30T11:18:52.584Z,17.12
2022-09-30T11:24:02.352Z,17.36
2022-09-30T11:29:26.670Z,17.42
2022-09-30T11:34:44.887Z,17.69
2022-09-30T11:40:19.317Z,17.95
2022-09-30T11:45:39.761Z,18.36
2022-09-30T11:51:18.721Z,18.71
2022-09-30T11:56:46.190Z,18.96
2022-09-30T12:01:49.941Z,19.39
2022-09-30T12:07:18.965Z,19.39
2022-09-30T12:12:20.829Z,19.89
2022-09-30T12:17:32.071Z,20.23
2022-09-30T12:22:41.131Z,20.18
2022-09-30T12:28:27.023Z,20.75
2022-09-30T12:33:43.273Z,21.17
2022-09-30T12:39:08.159Z,21.46
2022-09-30T12:44:35.996Z,21.13
2022-09-30T12:49:40.178Z,20.92
2022-09-30T12:54:48.086Z,21.53
2022-09-30T13:00:00.965Z,21.35
2022-09-30T13:05:46.719Z,20.74
2022-09-30T13:10:58.360Z,20.62
2022-09-30T13:16:05.623Z,20.71
2022-09-30T13:21:08.414Z,20.72
2022-09-30T13:26:34.732Z,20.92
2022-09-30T13:31:45.290Z,20.71
2022-09-30T13:36:52.487Z,20.50
2022-09-30T13:42:01.507Z,20.06
2022-09-30T13:47:22.001Z,20.48
2022-09-30T13:52:31.364Z,20.97
2022-09-30T13:57:49.017Z,21.17
2022-09-30T14:03:26.482Z,21.08
2022-09-30T14:08:50.615Z,20.72
2022-09-30T14:14:17.267Z,20.88
2022-09-30T14:19:32.517Z,20.65
2022-09-30T14:24:37.833Z,20.82
2022-09-30T14:29:45.480Z,20.90
2022-09-30T14:34:48.524Z,20.64
2022-09-30T14:39:50.076Z,20.66
2022-09-30T14:44:54.206Z,20.51
2022-09-30T14:49:55.596Z,20.68
2022-09-30T14:54:57.943Z,20.54
2022-09-30T15:00:21.191Z,20.39
2022-09-30T15:05:23.001Z,20.33
2022-09-30T15:10:25.062Z,20.52
2022-09-30T15:15:33.299Z,20.50
2022-09-30T15:20:36.655Z,20.46
2022-09-30T15:25:40.029Z,20.23
2022-09-30T15:30:43.059Z,20.19
2022-09-30T15:35:45.321Z,20.09
2022-09-30T15:40:58.954Z,20.02
2022-09-30T15:46:19.507Z,19.93
2022-09-30T15:51:36.349Z,19.78
2022-09-30T15:56:37.846Z,19.58
2022-09-30T16:01:44.397Z,19.53
2022-09-30T16:06:54.555Z,19.35
2022-09-30T16:12:08.722Z,19.17
2022-09-30T16:17:27.002Z,19.01
2022-09-30T16:22:40.657Z,18.90
2022-09-30T16:27:42.193Z,18.76
2022-09-30T16:32:47.455Z,18.58
2022-09-30T16:37:50.762Z,18.38
2022-09-30T16:42:54.807Z,18.30
2022-09-30T16:47:58.050Z,18.16
2022-09-30T16:52:59.429Z,18.03
2022-09-30T16:58:00.953Z,17.91
2022-09-30T17:03:02.392Z,17.80
2022-09-30T17:08:03.761Z,17.61
2022-09-30T17:13:06.032Z,17.40
2022-09-30T17:18:10.036Z,17.17
2022-09-30T17:23:12.511Z,16.97
2022-09-30T17:28:14.550Z,16.79
2022-09-30T17:33:18.503Z,16.58
2022-09-30T17:38:19.905Z,16.37
2022-09-30T17:43:21.514Z,16.13
2022-09-30T17:48:23.548Z,15.93
2022-09-30T17:53:25.074Z,15.71
2022-09-30T17:58:27.069Z,15.52
2022-09-30T18:03:28.460Z,15.33
2022-09-30T18:08:29.842Z,15.11
2022-09-30T18:13:31.178Z,14.98
2022-09-30T18:18:35.053Z,14.83
2022-09-30T18:23:36.452Z,14.69
2022-09-30T18:28:38.042Z,14.57
2022-09-30T18:33:39.557Z,14.43
2022-09-30T18:38:40.931Z,14.29
2022-09-30T18:43:45.092Z,14.12
2022-09-30T18:48:50.043Z,13.98
2022-09-30T18:53:57.418Z,13.86
2022-09-30T18:59:04.320Z,13.73
2022-09-30T19:04:05.812Z,13.53
2022-09-30T19:09:08.800Z,13.43
2022-09-30T19:14:12.436Z,13.34
2022-09-30T19:19:13.989Z,13.18
2022-09-30T19:24:17.028Z,13.02
2022-09-30T19:29:18.493Z,12.91
2022-09-30T19:34:30.286Z,12.84
2022-09-30T19:39:44.268Z,12.77
2022-09-30T19:44:47.056Z,12.71
2022-09-30T19:49:48.456Z,12.58
2022-09-30T19:54:50.768Z,12.48
2022-09-30T19:59:53.252Z,12.39
2022-09-30T20:04:54.805Z,12.33
2022-09-30T20:09:56.777Z,12.26
2022-09-30T20:15:16.656Z,12.19
2022-09-30T20:20:37.047Z,12.07
2022-09-30T20:25:38.771Z,11.99
2022-09-30T20:30:48.189Z,11.88
2022-09-30T20:35:50.862Z,11.74
2022-09-30T20:40:57.042Z,11.69
2022-09-30T20:46:03.351Z,11.65
2022-09-30T20:51:10.076Z,11.58
2022-09-30T20:56:15.112Z,11.52
2022-09-30T21:01:18.469Z,11.48
2022-09-30T21:06:25.012Z,11.44
2022-09-30T21:11:26.509Z,11.38
2022-09-30T21:16:29.467Z,11.35
2022-09-30T21:21:31.265Z,11.29
2022-09-30T21:26:32.835Z,11.24
2022-09-30T21:31:35.172Z,11.16
2022-09-30T21:36:38.876Z,11.11
2022-09-30T21:41:41.065Z,11.07
2022-09-30T21:46:48.035Z,11.04
2022-09-30T21:51:51.552Z,10.98
2022-09-30T21:56:53.398Z,10.95
2022-09-30T22:01:54.880Z,10.93
2022-09-30T22:06:56.291Z,10.89
2022-09-30T22:11:58.097Z,10.89
2022-09-30T22:16:59.505Z,10.96
2022-09-30T22:22:01.667Z,11.01
2022-09-30T22:27:07.432Z,11.03
2022-09-30T22:32:08.973Z,11.03
2022-09-30T22:37:28.688Z,11.01
2022-09-30T22:42:30.069Z,11.00
2022-09-30T22:47:31.751Z,10.97
2022-09-30T22:52:33.130Z,10.94
2022-09-30T22:57:34.756Z,10.91
2022-09-30T23:02:36.219Z,10.89
2022-09-30T23:07:37.711Z,10.85
2022-09-30T23:12:39.138Z,10.78
2022-09-30T23:17:40.534Z,10.70
2022-09-30T23:22:41.916Z,10.66
2022-09-30T23:27:47.610Z,10.61
2022-09-30T23:32:49.036Z,10.66
2022-09-30T23:37:52.318Z,10.69
2022-09-30T23:42:54.178Z,10.84
2022-09-30T23:47:57.186Z,10.93
2022-09-30T23:52:59.253Z,11.02
2022-09-30T23:58:00.630Z,11.04
